Gunlock, Kentucky
Current Conditions -  °F | °C
As of 8:55 PM on Wednesday 26 Nov 2014 (Local Time) from KPBX Reporting Station
Scattered Clouds Scattered Clouds  
Wind Chill: 39°   Ceiling: Unl
Heat Index: 39°   Visibility: 10mi
Dew Point: 28°   Wind: 3mph
Humidity: 65%   Direction: 350°N
Pressure: 29.98"   Gusts: NA
Location:  37.55°N, 82.92°W
Report Text: KPBX 270155Z AUTO 35003KT 10SM SCT120 04/M02 A2998 RMK AO2 T00401020
Loading
Personal Weather Stations






























Interactive Weather Map New forecast layout! Learn more

10-Day Weather Forecast

Advertisements
Track Severe Weather on mobile